createdAt,value
2022-11-07T00:02:09.077Z,18.63
2022-11-07T00:04:35.814Z,18.83
2022-11-07T00:07:02.491Z,19.00
2022-11-07T00:09:28.909Z,20.10
2022-11-07T00:11:55.480Z,19.13
2022-11-07T00:14:21.707Z,17.47
2022-11-07T00:16:49.452Z,20.70
2022-11-07T00:19:16.930Z,18.63
2022-11-07T00:21:43.474Z,16.73
2022-11-07T00:24:09.789Z,17.93
2022-11-07T00:26:36.749Z,19.00
2022-11-07T00:29:03.592Z,19.60
2022-11-07T00:31:30.019Z,17.93
2022-11-07T00:33:56.739Z,17.37
2022-11-07T00:36:26.906Z,16.10
2022-11-07T00:38:53.149Z,18.67
2022-11-07T00:41:19.374Z,17.93
2022-11-07T00:43:45.807Z,15.77
2022-11-07T00:46:12.706Z,17.40
2022-11-07T00:48:38.988Z,16.60
2022-11-07T00:51:09.461Z,17.77
2022-11-07T00:53:36.171Z,17.23
2022-11-07T00:56:03.183Z,17.03
2022-11-07T00:58:29.638Z,16.63
2022-11-07T01:00:55.941Z,18.20
2022-11-07T01:03:40.702Z,17.60
2022-11-07T01:06:07.177Z,16.10
2022-11-07T01:08:33.432Z,16.57
2022-11-07T01:11:02.665Z,14.90
2022-11-07T01:13:28.883Z,16.03
2022-11-07T01:15:55.130Z,16.47
2022-11-07T01:18:21.775Z,17.63
2022-11-07T01:20:49.510Z,15.80
2022-11-07T01:23:16.399Z,15.70
2022-11-07T01:25:42.851Z,14.50
2022-11-07T01:28:09.384Z,14.70
2022-11-07T01:30:39.311Z,14.90
2022-11-07T01:33:05.857Z,16.37
2022-11-07T01:35:32.640Z,15.37
2022-11-07T01:37:58.890Z,14.63
2022-11-07T01:40:25.115Z,15.17
2022-11-07T01:42:51.361Z,16.00
2022-11-07T01:45:22.799Z,14.90
2022-11-07T01:47:49.978Z,14.13
2022-11-07T01:50:16.658Z,13.00
2022-11-07T01:52:43.850Z,12.73
2022-11-07T01:55:15.825Z,13.07
2022-11-07T01:57:42.074Z,17.90
2022-11-07T02:00:09.877Z,11.80
2022-11-07T02:02:36.667Z,11.87
2022-11-07T02:05:04.037Z,16.90
2022-11-07T02:07:30.375Z,15.47
2022-11-07T02:09:56.893Z,12.23
2022-11-07T02:12:24.277Z,15.03
2022-11-07T02:14:50.845Z,14.13
2022-11-07T02:17:17.595Z,13.40
2022-11-07T02:19:48.545Z,14.77
2022-11-07T02:22:23.987Z,14.27
2022-11-07T02:24:52.097Z,15.70
2022-11-07T02:27:19.869Z,13.80
2022-11-07T02:29:48.326Z,13.60
2022-11-07T02:32:14.616Z,11.93
2022-11-07T02:34:40.857Z,12.77
2022-11-07T02:37:12.622Z,14.00
2022-11-07T02:39:38.845Z,11.93
2022-11-07T02:42:06.294Z,11.40
2022-11-07T02:44:32.802Z,11.20
2022-11-07T02:46:59.089Z,12.30
2022-11-07T02:49:25.349Z,11.10
2022-11-07T02:51:51.802Z,12.43
2022-11-07T02:54:18.019Z,12.57
2022-11-07T02:56:44.286Z,11.13
2022-11-07T02:59:10.496Z,12.37
2022-11-07T03:01:36.837Z,11.07
2022-11-07T03:04:03.185Z,11.43
2022-11-07T03:06:29.534Z,11.03
2022-11-07T03:08:55.791Z,11.93
2022-11-07T03:11:21.993Z,10.57
2022-11-07T03:13:48.847Z,11.20
2022-11-07T03:16:15.578Z,13.40
2022-11-07T03:18:41.870Z,10.73
2022-11-07T03:21:08.089Z,10.37
2022-11-07T03:23:35.040Z,10.87
2022-11-07T03:26:01.370Z,10.20
2022-11-07T03:28:27.614Z,10.73
2022-11-07T03:30:53.825Z,12.07
2022-11-07T03:33:20.051Z,10.23
2022-11-07T03:35:46.277Z,10.23
2022-11-07T03:38:12.495Z,9.47
2022-11-07T03:40:38.726Z,11.57
2022-11-07T03:43:04.985Z,11.90
2022-11-07T03:45:32.291Z,10.47
2022-11-07T03:47:58.592Z,11.33
2022-11-07T03:50:24.818Z,10.23
2022-11-07T03:52:51.045Z,12.20
2022-11-07T03:55:18.212Z,10.63
2022-11-07T03:57:44.890Z,10.30
2022-11-07T04:00:11.496Z,12.97
2022-11-07T04:02:37.827Z,10.80
2022-11-07T04:05:04.631Z,9.53
2022-11-07T04:07:31.063Z,10.90
2022-11-07T04:09:57.332Z,11.70
2022-11-07T04:12:49.616Z,10.77
2022-11-07T04:15:34.403Z,11.13
2022-11-07T04:18:00.645Z,12.10
2022-11-07T04:20:27.584Z,9.67
2022-11-07T04:22:53.918Z,9.63
2022-11-07T04:25:40.144Z,11.27
2022-11-07T04:28:06.359Z,10.40
2022-11-07T04:30:32.569Z,10.70
2022-11-07T04:32:59.451Z,9.47
2022-11-07T04:35:27.292Z,10.97
2022-11-07T04:37:53.768Z,9.37
2022-11-07T04:40:20.481Z,11.03
2022-11-07T04:42:47.467Z,10.00
2022-11-07T04:45:13.817Z,9.87
2022-11-07T04:47:40.916Z,10.63
2022-11-07T04:50:08.692Z,9.43
2022-11-07T04:52:34.976Z,9.47
2022-11-07T04:55:01.192Z,9.63
2022-11-07T04:57:27.419Z,11.30
2022-11-07T04:59:53.653Z,10.17
2022-11-07T05:02:22.709Z,13.27
2022-11-07T05:04:49.065Z,8.90
2022-11-07T05:07:15.378Z,8.43
2022-11-07T05:09:41.595Z,9.80
2022-11-07T05:12:07.873Z,10.03
2022-11-07T05:14:35.617Z,9.80
2022-11-07T05:17:03.235Z,11.20
2022-11-07T05:19:29.809Z,9.03
2022-11-07T05:22:15.370Z,9.70
2022-11-07T05:24:41.612Z,8.83
2022-11-07T05:27:16.355Z,8.90
2022-11-07T05:29:42.612Z,9.83
2022-11-07T05:32:08.834Z,8.57
2022-11-07T05:34:35.039Z,7.67
2022-11-07T05:37:06.888Z,8.43
2022-11-07T05:39:33.097Z,9.07
2022-11-07T05:42:00.247Z,8.07
2022-11-07T05:44:26.493Z,11.10
2022-11-07T05:46:52.705Z,8.40
2022-11-07T05:49:18.914Z,8.47
2022-11-07T05:51:45.143Z,8.77
2022-11-07T05:54:11.345Z,6.93
2022-11-07T05:56:38.420Z,9.07
2022-11-07T05:59:04.950Z,8.13
2022-11-07T06:01:31.280Z,10.67
2022-11-07T06:03:57.604Z,8.57
2022-11-07T06:06:23.907Z,9.47
2022-11-07T06:08:50.117Z,8.07
2022-11-07T06:11:16.341Z,9.13
2022-11-07T06:13:42.550Z,8.40
2022-11-07T06:16:08.814Z,8.87
2022-11-07T06:18:41.383Z,8.57
2022-11-07T06:21:08.083Z,8.57
2022-11-07T06:23:34.302Z,6.97
2022-11-07T06:26:00.513Z,8.60
2022-11-07T06:28:26.790Z,7.40
2022-11-07T06:30:53.009Z,7.47
2022-11-07T06:33:19.934Z,7.20
2022-11-07T06:35:46.902Z,6.40
2022-11-07T06:38:14.214Z,6.33
2022-11-07T06:40:41.249Z,8.83
2022-11-07T06:43:15.150Z,5.77
2022-11-07T06:45:42.028Z,6.80
2022-11-07T06:48:08.947Z,5.93
2022-11-07T06:50:35.500Z,7.30
2022-11-07T06:53:02.777Z,7.93
2022-11-07T06:55:29.149Z,6.17
2022-11-07T06:57:59.232Z,7.07
2022-11-07T07:00:25.525Z,8.77
2022-11-07T07:02:58.651Z,6.43
2022-11-07T07:05:25.212Z,6.90
2022-11-07T07:07:51.510Z,5.77
2022-11-07T07:10:17.875Z,7.23
2022-11-07T07:12:44.503Z,8.53
2022-11-07T07:15:10.755Z,9.13
2022-11-07T07:17:36.987Z,7.47
2022-11-07T07:20:04.641Z,7.77
2022-11-07T07:22:30.867Z,9.03
2022-11-07T07:24:57.080Z,9.43
2022-11-07T07:27:23.311Z,12.60
2022-11-07T07:29:50.526Z,5.57
2022-11-07T07:32:16.750Z,6.47
2022-11-07T07:34:42.972Z,9.97
2022-11-07T07:37:09.237Z,11.70
2022-11-07T07:39:35.458Z,9.37
2022-11-07T07:42:01.702Z,7.27
2022-11-07T07:44:27.974Z,6.80
2022-11-07T07:46:54.169Z,8.23
2022-11-07T07:49:20.393Z,6.80
2022-11-07T07:51:46.614Z,8.53
2022-11-07T07:54:12.865Z,4.13
2022-11-07T07:56:39.104Z,8.30
2022-11-07T07:59:05.451Z,4.90
2022-11-07T08:01:31.797Z,5.30
2022-11-07T08:04:01.778Z,8.87
2022-11-07T08:06:29.564Z,7.53
2022-11-07T08:08:55.779Z,7.10
2022-11-07T08:11:22.097Z,6.33
2022-11-07T08:13:48.312Z,6.23
2022-11-07T08:16:14.542Z,4.53
2022-11-07T08:18:40.868Z,7.57
2022-11-07T08:21:07.498Z,4.37
2022-11-07T08:23:33.800Z,4.23
2022-11-07T08:26:01.380Z,4.83
2022-11-07T08:28:28.964Z,10.33
2022-11-07T08:31:06.849Z,4.63
2022-11-07T08:33:33.572Z,3.70
2022-11-07T08:36:00.766Z,4.23
2022-11-07T08:38:27.471Z,5.43
2022-11-07T08:40:53.873Z,3.87
2022-11-07T08:43:20.276Z,5.63
2022-11-07T08:45:48.091Z,3.70
2022-11-07T08:48:15.271Z,3.27
2022-11-07T08:50:41.575Z,5.70
2022-11-07T08:53:07.867Z,3.30
2022-11-07T08:55:34.165Z,6.53
2022-11-07T08:58:01.161Z,3.30
2022-11-07T09:00:27.725Z,3.30
2022-11-07T09:05:40.269Z,4.73
2022-11-07T09:08:06.633Z,3.10
2022-11-07T09:10:32.934Z,4.80
2022-11-07T09:12:59.162Z,4.67
2022-11-07T09:15:25.406Z,5.17
2022-11-07T09:17:51.695Z,4.67
2022-11-07T09:20:18.194Z,4.20
2022-11-07T09:22:44.469Z,3.27
2022-11-07T09:25:10.798Z,4.67
2022-11-07T09:27:37.209Z,2.63
2022-11-07T09:30:04.469Z,8.03
2022-11-07T09:32:44.342Z,5.37
2022-11-07T09:35:11.808Z,2.70
2022-11-07T09:37:43.172Z,3.47
2022-11-07T09:40:32.473Z,3.20
2022-11-07T09:42:58.679Z,4.47
2022-11-07T09:45:25.063Z,5.50
2022-11-07T09:47:55.237Z,7.03
2022-11-07T09:50:38.811Z,2.87
2022-11-07T09:53:17.398Z,3.20
2022-11-07T09:55:58.583Z,3.73
2022-11-07T09:58:32.899Z,5.03
2022-11-07T10:01:01.033Z,3.90
2022-11-07T10:03:27.486Z,5.03
2022-11-07T10:05:59.653Z,2.90
2022-11-07T10:08:31.857Z,2.97
2022-11-07T10:10:59.894Z,6.20
2022-11-07T10:13:42.627Z,3.50
2022-11-07T10:16:26.037Z,4.60
2022-11-07T10:18:57.455Z,5.53
2022-11-07T10:21:42.523Z,4.37
2022-11-07T10:24:22.891Z,6.13
2022-11-07T10:26:49.111Z,3.70
2022-11-07T10:29:19.184Z,6.40
2022-11-07T10:31:51.304Z,8.40
2022-11-07T10:34:35.893Z,3.90
2022-11-07T10:37:02.199Z,2.77
2022-11-07T10:39:29.921Z,2.77
2022-11-07T10:41:56.124Z,4.23
2022-11-07T10:44:24.554Z,4.70
2022-11-07T10:46:53.407Z,2.43
2022-11-07T10:49:25.415Z,5.47
2022-11-07T10:51:52.083Z,2.73
2022-11-07T10:54:21.887Z,6.47
2022-11-07T10:57:01.846Z,3.43
2022-11-07T10:59:34.581Z,5.50
2022-11-07T11:02:02.870Z,4.47
2022-11-07T11:04:30.549Z,3.47
2022-11-07T11:07:09.150Z,4.73
2022-11-07T11:09:35.996Z,5.40
2022-11-07T11:12:25.381Z,5.40
2022-11-07T11:15:04.863Z,4.33
2022-11-07T11:17:31.358Z,2.90
2022-11-07T11:19:57.645Z,4.33
2022-11-07T11:22:24.871Z,3.87
2022-11-07T11:25:11.348Z,4.40
2022-11-07T11:27:38.637Z,3.47
2022-11-07T11:30:07.964Z,2.70
2022-11-07T11:32:37.333Z,5.53
2022-11-07T11:35:03.595Z,4.23
2022-11-07T11:37:32.163Z,3.10
2022-11-07T11:39:58.351Z,2.67
2022-11-07T11:42:30.540Z,3.17
2022-11-07T11:44:59.350Z,2.60
2022-11-07T11:47:34.176Z,3.97
2022-11-07T11:50:03.649Z,4.47
2022-11-07T11:52:31.768Z,4.37
2022-11-07T11:54:58.898Z,3.40
2022-11-07T11:57:25.180Z,4.70
2022-11-07T12:00:02.573Z,6.03
2022-11-07T12:02:31.649Z,2.60
2022-11-07T12:04:57.895Z,5.17
2022-11-07T12:07:42.815Z,4.57
2022-11-07T12:10:14.564Z,5.73
2022-11-07T12:12:53.286Z,3.10
2022-11-07T12:15:31.606Z,5.50
2022-11-07T12:18:10.195Z,6.67
2022-11-07T12:20:45.531Z,5.63
2022-11-07T12:23:26.803Z,4.87
2022-11-07T12:25:55.373Z,3.57
2022-11-07T12:28:27.589Z,5.87
2022-11-07T12:31:03.209Z,4.23
2022-11-07T12:33:36.584Z,5.10
2022-11-07T12:36:04.760Z,5.77
2022-11-07T12:38:49.954Z,3.10
2022-11-07T12:41:37.119Z,9.37
2022-11-07T12:44:15.249Z,4.03
2022-11-07T12:46:55.005Z,4.93
2022-11-07T12:49:27.069Z,4.30
2022-11-07T12:52:05.716Z,5.97
2022-11-07T12:54:37.048Z,6.90
2022-11-07T12:57:14.286Z,7.37
2022-11-07T12:59:43.942Z,3.33
2022-11-07T13:02:30.407Z,4.00
2022-11-07T13:05:03.380Z,4.33
2022-11-07T13:07:50.008Z,4.43
2022-11-07T13:10:29.401Z,5.77
2022-11-07T13:13:14.480Z,4.23
2022-11-07T13:16:08.781Z,7.30
2022-11-07T13:18:28.355Z,4.20
2022-11-07T13:21:05.016Z,3.00
2022-11-07T13:23:31.557Z,6.53
2022-11-07T13:25:59.240Z,3.63
2022-11-07T13:28:27.486Z,4.07
2022-11-07T13:30:56.548Z,3.30
2022-11-07T13:33:30.443Z,3.63
2022-11-07T13:36:11.955Z,3.87
2022-11-07T13:38:42.251Z,5.97
2022-11-07T13:41:09.349Z,5.03
2022-11-07T13:43:55.554Z,4.77
2022-11-07T13:46:30.810Z,6.43
2022-11-07T13:48:59.501Z,4.53
2022-11-07T13:51:33.334Z,3.23
2022-11-07T13:54:08.868Z,5.03
2022-11-07T13:56:39.438Z,4.77
2022-11-07T13:59:10.431Z,3.83
2022-11-07T14:01:43.743Z,4.50
2022-11-07T14:04:14.004Z,8.03
2022-11-07T14:06:40.671Z,5.83
2022-11-07T14:09:06.936Z,4.53
2022-11-07T14:11:34.266Z,4.37
2022-11-07T14:14:00.641Z,4.77
2022-11-07T14:16:27.990Z,4.97
2022-11-07T14:18:55.854Z,6.27
2022-11-07T14:21:25.420Z,5.00
2022-11-07T14:23:51.646Z,3.80
2022-11-07T14:26:26.253Z,5.93
2022-11-07T14:28:57.558Z,3.23
2022-11-07T14:31:29.310Z,3.93
2022-11-07T14:34:00.025Z,4.87
2022-11-07T14:36:26.833Z,5.43
2022-11-07T14:38:55.338Z,4.20
2022-11-07T14:41:22.427Z,6.27
2022-11-07T14:43:49.692Z,6.27
2022-11-07T14:46:18.180Z,6.63
2022-11-07T14:48:44.964Z,4.20
2022-11-07T14:51:15.982Z,4.93
2022-11-07T14:53:55.136Z,4.47
2022-11-07T14:56:24.407Z,4.90
2022-11-07T14:58:51.003Z,4.40
2022-11-07T15:01:28.279Z,6.23
2022-11-07T15:04:13.451Z,5.17
2022-11-07T15:06:44.342Z,4.40
2022-11-07T15:09:11.931Z,4.53
2022-11-07T15:11:39.208Z,4.47
2022-11-07T15:14:20.352Z,5.23
2022-11-07T15:16:48.289Z,7.93
2022-11-07T15:19:15.816Z,6.20
2022-11-07T15:21:51.836Z,4.97
2022-11-07T15:24:32.358Z,4.83
2022-11-07T15:27:00.451Z,8.47
2022-11-07T15:29:30.146Z,4.87
2022-11-07T15:31:56.456Z,4.67
2022-11-07T15:34:45.216Z,3.30
2022-11-07T15:37:15.898Z,4.73
2022-11-07T15:39:42.103Z,5.13
2022-11-07T15:42:08.343Z,6.97
2022-11-07T15:44:34.633Z,3.93
2022-11-07T15:47:01.243Z,5.23
2022-11-07T15:49:28.258Z,8.23
2022-11-07T15:51:54.481Z,4.30
2022-11-07T15:54:21.020Z,6.60
2022-11-07T15:56:47.363Z,7.60
2022-11-07T15:59:18.115Z,7.97
2022-11-07T16:01:44.560Z,5.63
2022-11-07T16:04:11.220Z,5.20
2022-11-07T16:06:41.934Z,4.77
2022-11-07T16:09:15.375Z,6.33
2022-11-07T16:11:41.749Z,7.43
2022-11-07T16:14:37.953Z,7.13
2022-11-07T16:16:58.939Z,8.33
2022-11-07T16:19:28.416Z,6.53
2022-11-07T16:21:54.647Z,5.93
2022-11-07T16:24:20.866Z,14.70
2022-11-07T16:26:49.993Z,10.83
2022-11-07T16:29:16.214Z,4.37
2022-11-07T16:31:42.469Z,8.70
2022-11-07T16:34:09.857Z,6.40
2022-11-07T16:36:36.319Z,5.40
2022-11-07T16:39:05.285Z,5.73
2022-11-07T16:41:32.501Z,5.60
2022-11-07T16:43:59.122Z,7.07
2022-11-07T16:46:26.253Z,7.43
2022-11-07T16:48:57.912Z,4.53
2022-11-07T16:51:24.207Z,4.83
2022-11-07T16:53:53.136Z,4.77
2022-11-07T16:56:28.825Z,4.27
2022-11-07T16:58:55.270Z,5.20
2022-11-07T17:01:22.275Z,10.13
2022-11-07T17:03:48.894Z,7.20
2022-11-07T17:06:34.377Z,5.43
2022-11-07T17:09:10.598Z,5.30
2022-11-07T17:11:38.655Z,6.50
2022-11-07T17:14:04.890Z,5.83
2022-11-07T17:16:34.858Z,17.27
2022-11-07T17:19:01.114Z,6.37
2022-11-07T17:21:28.546Z,2.97
2022-11-07T17:23:56.626Z,5.33
2022-11-07T17:26:24.129Z,5.43
2022-11-07T17:28:51.278Z,4.60
2022-11-07T17:31:17.870Z,8.43
2022-11-07T17:33:44.352Z,6.77
2022-11-07T17:36:21.214Z,5.13
2022-11-07T17:38:47.425Z,4.20
2022-11-07T17:41:18.992Z,5.87
2022-11-07T17:43:45.931Z,8.27
2022-11-07T17:46:16.087Z,4.80
2022-11-07T17:48:47.130Z,5.07
2022-11-07T17:51:13.957Z,5.17
2022-11-07T17:53:40.263Z,5.43
2022-11-07T17:56:06.994Z,5.47
2022-11-07T17:58:33.222Z,7.13
2022-11-07T18:00:59.498Z,6.83
2022-11-07T18:03:25.894Z,5.50
2022-11-07T18:05:52.395Z,6.23
2022-11-07T18:08:38.387Z,5.07
2022-11-07T18:11:05.412Z,5.03
2022-11-07T18:13:31.637Z,8.67
2022-11-07T18:15:58.022Z,6.40
2022-11-07T18:18:24.374Z,7.00
2022-11-07T18:20:50.970Z,6.57
2022-11-07T18:23:17.178Z,3.77
2022-11-07T18:25:43.543Z,2.83
2022-11-07T18:28:10.573Z,8.70
2022-11-07T18:30:37.040Z,7.13
2022-11-07T18:33:03.335Z,6.30
2022-11-07T18:35:29.663Z,3.83
2022-11-07T18:37:56.074Z,4.30
2022-11-07T18:40:22.301Z,7.67
2022-11-07T18:42:48.535Z,6.60
2022-11-07T18:45:14.779Z,5.50
2022-11-07T18:47:41.344Z,5.20
2022-11-07T18:50:07.726Z,8.03
2022-11-07T18:52:33.966Z,7.93
2022-11-07T18:55:00.260Z,5.73
2022-11-07T18:57:28.783Z,8.27
2022-11-07T18:59:55.043Z,7.13
2022-11-07T19:02:21.870Z,8.17
2022-11-07T19:04:48.147Z,8.10
2022-11-07T19:07:14.441Z,7.63
2022-11-07T19:09:40.670Z,8.80
2022-11-07T19:12:07.683Z,5.80
2022-11-07T19:14:34.057Z,7.77
2022-11-07T19:17:00.341Z,7.67
2022-11-07T19:19:26.791Z,13.47
2022-11-07T19:21:53.026Z,7.93
2022-11-07T19:24:19.348Z,5.77
2022-11-07T19:26:45.655Z,6.23
2022-11-07T19:29:12.132Z,8.73
2022-11-07T19:31:38.423Z,4.67
2022-11-07T19:34:05.044Z,6.67
2022-11-07T19:36:31.581Z,8.63
2022-11-07T19:38:57.890Z,5.97
2022-11-07T19:41:24.201Z,5.10
2022-11-07T19:43:51.144Z,3.83
2022-11-07T19:46:19.543Z,4.40
2022-11-07T19:48:46.046Z,5.20
2022-11-07T19:51:19.868Z,5.47
2022-11-07T19:53:51.454Z,8.00
2022-11-07T19:56:17.679Z,6.17
2022-11-07T19:58:44.101Z,4.63
2022-11-07T20:01:11.527Z,5.90
2022-11-07T20:03:37.900Z,7.53
2022-11-07T20:06:04.394Z,6.43
2022-11-07T20:08:30.636Z,6.63
2022-11-07T20:10:56.854Z,8.97
2022-11-07T20:13:23.081Z,5.97
2022-11-07T20:15:49.282Z,10.77
2022-11-07T20:18:16.443Z,6.27
2022-11-07T20:20:42.781Z,5.70
2022-11-07T20:23:09.934Z,6.57
2022-11-07T20:25:39.771Z,5.63
2022-11-07T20:28:05.987Z,6.47
2022-11-07T20:30:33.069Z,7.23
2022-11-07T20:32:59.322Z,6.67
2022-11-07T20:35:30.760Z,6.23
2022-11-07T20:37:57.267Z,6.73
2022-11-07T20:40:28.991Z,4.33
2022-11-07T20:42:55.607Z,5.33
2022-11-07T20:45:21.822Z,5.30
2022-11-07T20:47:48.243Z,9.13
2022-11-07T20:50:14.524Z,8.60
2022-11-07T20:52:40.817Z,5.23
2022-11-07T20:55:07.223Z,6.37
2022-11-07T20:57:33.471Z,7.23
2022-11-07T20:59:59.687Z,4.93
2022-11-07T21:02:25.942Z,4.97
2022-11-07T21:05:16.064Z,8.17
2022-11-07T21:07:38.800Z,5.97
2022-11-07T21:10:05.235Z,4.63
2022-11-07T21:12:31.509Z,6.53
2022-11-07T21:14:57.758Z,6.50
2022-11-07T21:17:24.139Z,6.67
2022-11-07T21:19:50.375Z,5.33
2022-11-07T21:22:16.599Z,5.90
2022-11-07T21:24:42.840Z,7.10
2022-11-07T21:27:09.051Z,8.90
2022-11-07T21:29:36.328Z,7.57
2022-11-07T21:32:02.623Z,5.27
2022-11-07T21:34:28.848Z,6.07
2022-11-07T21:36:55.106Z,6.97
2022-11-07T21:39:21.327Z,6.13
2022-11-07T21:41:47.543Z,7.90
2022-11-07T21:44:13.784Z,5.27
2022-11-07T21:46:40.069Z,4.60
2022-11-07T21:49:06.638Z,4.03
2022-11-07T21:51:34.303Z,3.90
2022-11-07T21:54:01.418Z,6.20
2022-11-07T21:56:29.238Z,6.57
2022-11-07T21:58:59.920Z,6.20
2022-11-07T22:01:26.505Z,6.13
2022-11-07T22:04:10.080Z,6.27
2022-11-07T22:06:38.413Z,5.47
2022-11-07T22:09:05.688Z,4.70
2022-11-07T22:11:31.994Z,6.17
2022-11-07T22:13:58.394Z,4.13
2022-11-07T22:16:24.691Z,6.67
2022-11-07T22:18:51.031Z,9.90
2022-11-07T22:21:19.081Z,6.13
2022-11-07T22:23:45.731Z,7.80
2022-11-07T22:26:15.841Z,5.60
2022-11-07T22:28:45.765Z,7.00
2022-11-07T22:31:21.534Z,6.90
2022-11-07T22:33:49.317Z,6.27
2022-11-07T22:36:15.833Z,7.77
2022-11-07T22:38:42.149Z,7.23
2022-11-07T22:41:09.241Z,4.47
2022-11-07T22:43:35.473Z,6.30
2022-11-07T22:46:02.932Z,5.80
2022-11-07T22:48:30.967Z,6.17
2022-11-07T22:51:07.799Z,6.73
2022-11-07T22:53:34.118Z,5.00
2022-11-07T22:56:08.705Z,7.10
2022-11-07T22:58:34.951Z,7.17
2022-11-07T23:01:01.153Z,5.83
2022-11-07T23:03:28.406Z,5.00
2022-11-07T23:05:54.655Z,7.87
2022-11-07T23:08:20.879Z,5.13
2022-11-07T23:11:13.753Z,6.97
2022-11-07T23:13:43.692Z,7.60
2022-11-07T23:16:23.187Z,6.70
2022-11-07T23:18:49.739Z,8.23
2022-11-07T23:21:16.733Z,7.37
2022-11-07T23:23:43.206Z,7.33
2022-11-07T23:26:11.408Z,8.10
2022-11-07T23:28:38.036Z,6.67
2022-11-07T23:31:04.485Z,6.20
2022-11-07T23:33:31.898Z,3.53
2022-11-07T23:35:58.763Z,8.20
2022-11-07T23:38:25.623Z,5.30
2022-11-07T23:40:51.831Z,5.70
2022-11-07T23:43:18.080Z,6.50
2022-11-07T23:46:02.908Z,8.73
2022-11-07T23:48:47.748Z,6.63
2022-11-07T23:51:14.021Z,6.73
2022-11-07T23:53:58.860Z,8.03
2022-11-07T23:56:26.744Z,7.90
2022-11-07T23:59:12.131Z,8.77
